createdAt,value
2024-02-09T00:00:33.065Z,20.60
2024-02-09T00:03:01.507Z,15.07
2024-02-09T00:05:30.114Z,15.00
2024-02-09T00:08:01.855Z,14.10
2024-02-09T00:10:28.982Z,12.33
2024-02-09T00:12:56.871Z,12.40
2024-02-09T00:15:26.338Z,14.27
2024-02-09T00:17:53.087Z,17.27
2024-02-09T00:20:22.263Z,15.27
2024-02-09T00:25:17.170Z,23.40
2024-02-09T00:27:44.661Z,19.67
2024-02-09T00:30:11.979Z,14.50
2024-02-09T00:32:38.888Z,23.10
2024-02-09T00:35:05.979Z,16.07
2024-02-09T00:37:33.211Z,16.97
2024-02-09T00:40:00.191Z,19.43
2024-02-09T00:42:27.020Z,18.87
2024-02-09T00:44:53.772Z,18.37
2024-02-09T00:47:23.672Z,17.53
2024-02-09T00:49:50.792Z,17.23
2024-02-09T00:52:17.799Z,11.30
2024-02-09T00:54:44.621Z,17.13
2024-02-09T00:57:11.412Z,21.77
2024-02-09T00:59:40.370Z,17.03
2024-02-09T01:02:08.370Z,25.70
2024-02-09T01:04:36.350Z,16.70
2024-02-09T01:07:05.211Z,14.33
2024-02-09T01:09:34.850Z,13.47
2024-02-09T01:12:26.257Z,13.70
2024-02-09T01:15:11.591Z,16.40
2024-02-09T01:17:58.452Z,12.87
2024-02-09T01:20:43.902Z,21.93
2024-02-09T01:23:29.436Z,15.13
2024-02-09T01:26:14.563Z,16.40
2024-02-09T01:28:59.987Z,14.33
2024-02-09T01:31:45.144Z,11.07
2024-02-09T01:34:30.285Z,11.50
2024-02-09T01:37:16.022Z,13.80
2024-02-09T01:40:01.475Z,12.97
2024-02-09T01:42:47.433Z,11.70
2024-02-09T01:45:32.522Z,12.17
2024-02-09T01:48:19.635Z,10.47
2024-02-09T01:51:05.143Z,13.97
2024-02-09T01:53:51.371Z,16.10
2024-02-09T01:56:36.881Z,14.77
2024-02-09T01:59:22.579Z,14.27
2024-02-09T02:02:09.288Z,16.77
2024-02-09T02:04:54.601Z,13.77
2024-02-09T02:07:42.609Z,10.63
2024-02-09T02:10:28.100Z,16.17
2024-02-09T02:13:13.521Z,15.53
2024-02-09T02:15:58.732Z,12.13
2024-02-09T02:18:44.181Z,12.80
2024-02-09T02:21:29.534Z,14.20
2024-02-09T02:24:17.732Z,15.37
2024-02-09T02:27:02.952Z,15.87
2024-02-09T02:29:52.996Z,15.53
2024-02-09T02:32:38.449Z,12.17
2024-02-09T02:35:24.362Z,9.93
2024-02-09T02:38:09.594Z,8.30
2024-02-09T02:40:54.778Z,17.63
2024-02-09T02:43:21.490Z,10.87
2024-02-09T02:45:49.805Z,8.63
2024-02-09T02:48:35.046Z,10.90
2024-02-09T02:51:20.493Z,10.73
2024-02-09T02:54:05.783Z,17.47
2024-02-09T02:56:51.044Z,10.30
2024-02-09T02:59:36.382Z,8.70
2024-02-09T03:02:29.322Z,9.13
2024-02-09T03:04:56.187Z,11.37
2024-02-09T03:07:50.696Z,9.40
2024-02-09T03:10:11.179Z,9.53
2024-02-09T03:12:40.912Z,10.73
2024-02-09T03:15:12.560Z,9.77
2024-02-09T03:17:40.413Z,11.20
2024-02-09T03:20:08.601Z,11.83
2024-02-09T03:22:36.263Z,15.87
2024-02-09T03:25:05.330Z,13.70
2024-02-09T03:27:40.592Z,9.70
2024-02-09T03:30:09.638Z,14.53
2024-02-09T03:32:40.012Z,9.53
2024-02-09T03:35:07.435Z,14.10
2024-02-09T03:37:34.931Z,10.53
2024-02-09T03:40:02.844Z,11.57
2024-02-09T03:42:30.544Z,12.90
2024-02-09T03:44:59.548Z,9.83
2024-02-09T03:47:28.369Z,12.23
2024-02-09T03:49:59.216Z,5.77
2024-02-09T03:52:26.751Z,7.90
2024-02-09T03:54:54.738Z,6.57
2024-02-09T03:57:22.343Z,6.53
2024-02-09T03:59:51.055Z,7.80
2024-02-09T04:02:18.657Z,10.67
2024-02-09T04:04:45.820Z,8.93
2024-02-09T04:07:12.787Z,6.47
2024-02-09T04:10:02.900Z,6.83
2024-02-09T04:12:26.511Z,17.93
2024-02-09T04:14:53.236Z,7.67
2024-02-09T04:17:20.174Z,11.77
2024-02-09T04:19:46.992Z,6.60
2024-02-09T04:22:13.843Z,12.67
2024-02-09T04:24:40.619Z,9.93
2024-02-09T04:27:07.436Z,17.77
2024-02-09T04:29:34.386Z,9.77
2024-02-09T04:32:02.512Z,13.47
2024-02-09T04:34:30.022Z,12.63
2024-02-09T04:36:57.176Z,9.97
2024-02-09T04:39:24.026Z,11.17
2024-02-09T04:41:52.003Z,6.33
2024-02-09T04:44:21.697Z,6.43
2024-02-09T04:46:49.360Z,6.50
2024-02-09T04:49:16.671Z,8.50
2024-02-09T04:51:48.247Z,12.27
2024-02-09T04:54:15.862Z,8.93
2024-02-09T04:56:42.631Z,6.37
2024-02-09T04:59:11.031Z,4.63
2024-02-09T05:01:40.387Z,11.93
2024-02-09T05:04:09.959Z,13.40
2024-02-09T05:06:37.381Z,6.40
2024-02-09T05:09:07.092Z,12.57
2024-02-09T05:11:37.657Z,11.47
2024-02-09T05:14:08.030Z,7.93
2024-02-09T05:16:38.066Z,9.97
2024-02-09T05:19:05.163Z,8.23
2024-02-09T05:21:35.890Z,9.60
2024-02-09T05:24:04.583Z,15.30
2024-02-09T05:26:32.515Z,6.97
2024-02-09T05:29:04.118Z,14.00
2024-02-09T05:31:31.876Z,8.60
2024-02-09T05:33:59.418Z,15.87
2024-02-09T05:36:28.199Z,9.33
2024-02-09T05:38:58.343Z,5.33
2024-02-09T05:41:27.581Z,9.27
2024-02-09T05:43:58.473Z,7.53
2024-02-09T05:46:29.381Z,6.80
2024-02-09T05:48:57.659Z,8.80
2024-02-09T05:51:25.608Z,10.33
2024-02-09T05:53:52.709Z,12.97
2024-02-09T05:56:21.411Z,15.33
2024-02-09T05:58:49.128Z,11.63
2024-02-09T06:01:16.160Z,17.00
2024-02-09T06:03:43.540Z,13.20
2024-02-09T06:06:13.168Z,9.70
2024-02-09T06:08:40.691Z,9.60
2024-02-09T06:11:07.596Z,13.23
2024-02-09T06:13:34.503Z,13.53
2024-02-09T06:16:01.874Z,11.30
2024-02-09T06:18:29.779Z,9.47
2024-02-09T06:20:59.696Z,13.37
2024-02-09T06:23:26.628Z,14.27
2024-02-09T06:25:53.991Z,14.40
2024-02-09T06:28:21.147Z,15.80
2024-02-09T06:30:48.749Z,17.27
2024-02-09T06:33:22.763Z,16.20
2024-02-09T06:35:49.861Z,12.00
2024-02-09T06:38:19.308Z,15.33
2024-02-09T06:40:47.466Z,14.87
2024-02-09T06:43:20.518Z,19.07
2024-02-09T06:45:48.011Z,14.87
2024-02-09T06:48:15.213Z,14.27
2024-02-09T06:50:43.066Z,9.90
2024-02-09T06:53:10.200Z,10.67
2024-02-09T06:55:40.469Z,12.80
2024-02-09T06:58:07.427Z,11.53
2024-02-09T07:00:34.532Z,12.77
2024-02-09T07:03:01.522Z,12.00
2024-02-09T07:05:28.407Z,15.07
2024-02-09T07:07:55.230Z,12.33
2024-02-09T07:10:24.053Z,16.27
2024-02-09T07:12:52.916Z,13.63
2024-02-09T07:15:19.726Z,15.83
2024-02-09T07:17:49.029Z,20.43
2024-02-09T07:20:18.295Z,18.23
2024-02-09T07:22:45.632Z,19.60
2024-02-09T07:25:12.814Z,27.60
2024-02-09T07:27:40.888Z,19.33
2024-02-09T07:30:08.834Z,28.43
2024-02-09T07:32:36.069Z,27.93
2024-02-09T07:35:03.256Z,18.43
2024-02-09T07:37:30.211Z,24.50
2024-02-09T07:39:57.426Z,24.47
2024-02-09T07:42:25.836Z,40.70
2024-02-09T07:44:52.720Z,23.43
2024-02-09T07:47:19.610Z,27.07
2024-02-09T07:49:46.586Z,30.97
2024-02-09T07:52:13.515Z,27.07
2024-02-09T07:54:40.583Z,28.87
2024-02-09T07:57:08.474Z,34.63
2024-02-09T07:59:35.448Z,28.40
2024-02-09T08:02:02.402Z,32.33
2024-02-09T08:04:32.964Z,26.73
2024-02-09T08:07:00.250Z,27.40
2024-02-09T08:09:27.815Z,29.07
2024-02-09T08:11:54.642Z,27.10
2024-02-09T08:14:21.780Z,27.10
2024-02-09T08:16:48.619Z,25.73
2024-02-09T08:19:17.492Z,27.33
2024-02-09T08:21:44.460Z,21.50
2024-02-09T08:24:15.654Z,19.93
2024-02-09T08:26:49.684Z,26.20
2024-02-09T08:29:21.768Z,21.30
2024-02-09T08:31:48.491Z,22.17
2024-02-09T08:34:15.338Z,19.83
2024-02-09T08:36:42.017Z,21.27
2024-02-09T08:39:08.810Z,23.80
2024-02-09T08:41:35.468Z,23.70
2024-02-09T08:44:02.890Z,19.07
2024-02-09T08:46:29.918Z,21.17
2024-02-09T08:48:57.722Z,15.50
2024-02-09T08:51:25.677Z,15.50
2024-02-09T08:53:52.455Z,13.70
2024-02-09T08:56:19.447Z,15.60
2024-02-09T08:58:48.394Z,13.27
2024-02-09T09:01:15.667Z,17.50
2024-02-09T09:03:42.929Z,16.53
2024-02-09T09:06:09.789Z,12.90
2024-02-09T09:08:36.702Z,14.47
2024-02-09T09:11:03.540Z,18.73
2024-02-09T09:13:31.940Z,18.50
2024-02-09T09:15:59.031Z,14.43
2024-02-09T09:18:30.152Z,16.23
2024-02-09T09:20:56.971Z,9.43
2024-02-09T09:23:23.699Z,13.27
2024-02-09T09:25:51.851Z,12.93
2024-02-09T09:28:19.867Z,12.77
2024-02-09T09:30:47.416Z,12.77
2024-02-09T09:33:14.299Z,13.00
2024-02-09T09:35:42.165Z,13.57
2024-02-09T09:38:11.497Z,8.53
2024-02-09T09:40:41.206Z,10.07
2024-02-09T09:43:09.521Z,6.90
2024-02-09T09:45:36.471Z,9.37
2024-02-09T09:48:08.459Z,13.00
2024-02-09T09:50:36.861Z,10.37
2024-02-09T09:53:09.592Z,11.13
2024-02-09T09:55:38.668Z,9.60
2024-02-09T09:58:06.721Z,10.27
2024-02-09T10:00:35.987Z,10.13
2024-02-09T10:03:05.935Z,8.50
2024-02-09T10:05:33.012Z,8.60
2024-02-09T10:08:00.995Z,10.20
2024-02-09T10:10:29.937Z,7.07
2024-02-09T10:13:13.226Z,11.13
2024-02-09T10:15:42.692Z,9.67
2024-02-09T10:18:12.968Z,7.33
2024-02-09T10:20:44.197Z,6.70
2024-02-09T10:23:11.020Z,8.83
2024-02-09T10:25:40.206Z,7.80
2024-02-09T10:28:07.156Z,7.60
2024-02-09T10:30:45.101Z,12.37
2024-02-09T10:33:11.950Z,9.17
2024-02-09T10:35:38.760Z,10.53
2024-02-09T10:38:05.677Z,8.43
2024-02-09T10:40:34.442Z,6.30
2024-02-09T10:43:05.459Z,8.33
2024-02-09T10:45:35.642Z,6.13
2024-02-09T10:48:04.761Z,7.87
2024-02-09T10:50:33.615Z,7.77
2024-02-09T10:53:01.934Z,7.23
2024-02-09T10:55:35.190Z,6.37
2024-02-09T10:58:05.471Z,5.77
2024-02-09T11:00:39.412Z,7.77
2024-02-09T11:03:06.924Z,6.23
2024-02-09T11:05:36.839Z,7.40
2024-02-09T11:08:05.126Z,7.03
2024-02-09T11:10:32.190Z,8.60
2024-02-09T11:13:00.115Z,6.60
2024-02-09T11:15:32.762Z,6.63
2024-02-09T11:17:59.911Z,9.87
2024-02-09T11:20:27.745Z,6.57
2024-02-09T11:23:01.624Z,8.73
2024-02-09T11:25:29.196Z,6.13
2024-02-09T11:27:58.038Z,7.50
2024-02-09T11:30:24.802Z,7.73
2024-02-09T11:32:52.069Z,8.43
2024-02-09T11:35:19.945Z,9.40
2024-02-09T11:37:47.552Z,10.07
2024-02-09T11:40:18.768Z,6.30
2024-02-09T11:42:46.308Z,9.37
2024-02-09T11:45:13.128Z,10.27
2024-02-09T11:47:42.806Z,7.73
2024-02-09T11:50:24.163Z,9.23
2024-02-09T11:53:05.214Z,5.77
2024-02-09T11:55:44.272Z,8.90
2024-02-09T11:58:12.929Z,5.83
2024-02-09T12:00:42.513Z,8.00
2024-02-09T12:03:13.179Z,8.80
2024-02-09T12:05:43.974Z,6.53
2024-02-09T12:08:11.161Z,6.80
2024-02-09T12:10:38.056Z,8.60
2024-02-09T12:13:07.363Z,7.57
2024-02-09T12:15:35.120Z,8.73
2024-02-09T12:18:03.232Z,7.80
2024-02-09T12:20:31.494Z,7.30
2024-02-09T12:22:59.557Z,10.17
2024-02-09T12:25:26.525Z,8.60
2024-02-09T12:27:58.001Z,10.10
2024-02-09T12:30:30.087Z,9.90
2024-02-09T12:33:01.484Z,8.37
2024-02-09T12:35:29.670Z,6.30
2024-02-09T12:37:58.429Z,9.53
2024-02-09T12:40:26.389Z,10.07
2024-02-09T12:42:57.162Z,6.57
2024-02-09T12:45:32.663Z,7.57
2024-02-09T12:47:59.788Z,8.73
2024-02-09T12:50:28.775Z,5.67
2024-02-09T12:52:56.301Z,7.20
2024-02-09T12:55:25.193Z,8.43
2024-02-09T12:57:56.381Z,6.50
2024-02-09T13:00:25.165Z,7.60
2024-02-09T13:02:52.354Z,7.53
2024-02-09T13:05:19.488Z,7.73
2024-02-09T13:07:46.300Z,6.03
2024-02-09T13:10:14.303Z,6.57
2024-02-09T13:12:41.547Z,5.80
2024-02-09T13:15:16.587Z,13.13
2024-02-09T13:17:43.913Z,6.10
2024-02-09T13:20:11.107Z,9.40
2024-02-09T13:22:40.981Z,9.33
2024-02-09T13:25:15.295Z,10.00
2024-02-09T13:27:47.090Z,6.80
2024-02-09T13:30:14.710Z,12.33
2024-02-09T13:32:41.524Z,6.77
2024-02-09T13:35:12.729Z,5.53
2024-02-09T13:37:45.603Z,6.17
2024-02-09T13:40:16.898Z,8.13
2024-02-09T13:42:47.235Z,5.40
2024-02-09T13:45:18.861Z,5.50
2024-02-09T13:47:46.208Z,7.90
2024-02-09T13:50:13.239Z,6.13
2024-02-09T13:52:41.156Z,7.10
2024-02-09T13:55:14.264Z,6.97
2024-02-09T13:57:49.731Z,7.20
2024-02-09T14:00:20.372Z,6.10
2024-02-09T14:02:47.490Z,5.97
2024-02-09T14:05:16.597Z,6.73
2024-02-09T14:07:44.058Z,4.77
2024-02-09T14:10:12.654Z,5.33
2024-02-09T14:12:39.789Z,4.70
2024-02-09T14:15:09.107Z,9.20
2024-02-09T14:17:36.496Z,6.10
2024-02-09T14:20:04.493Z,7.20
2024-02-09T14:22:31.991Z,6.83
2024-02-09T14:24:59.183Z,4.27
2024-02-09T14:27:27.041Z,5.23
2024-02-09T14:29:54.335Z,5.63
2024-02-09T14:32:22.850Z,6.37
2024-02-09T14:34:50.046Z,5.40
2024-02-09T14:37:16.898Z,3.73
2024-02-09T14:39:43.774Z,5.40
2024-02-09T14:42:13.114Z,6.00
2024-02-09T14:44:44.367Z,6.67
2024-02-09T14:47:11.719Z,5.80
2024-02-09T14:49:39.171Z,6.20
2024-02-09T14:52:09.035Z,7.57
2024-02-09T14:54:37.398Z,6.50
2024-02-09T14:57:05.830Z,8.53
2024-02-09T14:59:33.010Z,6.83
2024-02-09T15:02:00.233Z,8.13
2024-02-09T15:04:27.330Z,9.07
2024-02-09T15:06:54.217Z,9.87
2024-02-09T15:09:23.773Z,9.23
2024-02-09T15:11:51.073Z,9.10
2024-02-09T15:14:17.923Z,9.80
2024-02-09T15:16:44.714Z,6.83
2024-02-09T15:19:13.365Z,6.50
2024-02-09T15:21:42.588Z,6.70
2024-02-09T15:24:09.535Z,6.77
2024-02-09T15:26:36.778Z,9.83
2024-02-09T15:29:05.962Z,5.90
2024-02-09T15:31:32.993Z,5.77
2024-02-09T15:33:59.970Z,10.97
2024-02-09T15:36:31.198Z,8.63
2024-02-09T15:38:57.938Z,6.30
2024-02-09T15:41:24.975Z,5.00
2024-02-09T15:43:54.783Z,5.70
2024-02-09T15:46:21.627Z,3.97
2024-02-09T15:48:51.802Z,5.40
2024-02-09T15:51:24.516Z,4.63
2024-02-09T15:53:55.640Z,5.80
2024-02-09T15:56:23.486Z,4.97
2024-02-09T15:58:51.513Z,6.23
2024-02-09T16:01:19.657Z,6.73
2024-02-09T16:03:51.626Z,7.60
2024-02-09T16:06:19.376Z,6.60
2024-02-09T16:08:46.233Z,7.17
2024-02-09T16:11:12.981Z,9.30
2024-02-09T16:13:41.250Z,7.27
2024-02-09T16:16:08.984Z,6.53
2024-02-09T16:18:37.009Z,5.30
2024-02-09T16:21:03.981Z,5.97
2024-02-09T16:23:31.072Z,4.53
2024-02-09T16:26:04.815Z,5.57
2024-02-09T16:28:33.808Z,5.57
2024-02-09T16:31:01.230Z,7.87
2024-02-09T16:33:31.014Z,6.30
2024-02-09T16:35:57.744Z,7.00
2024-02-09T16:38:25.648Z,8.63
2024-02-09T16:40:52.508Z,5.43
2024-02-09T16:43:21.211Z,5.07
2024-02-09T16:45:48.428Z,5.63
2024-02-09T16:48:18.047Z,4.73
2024-02-09T16:50:44.864Z,5.83
2024-02-09T16:53:16.375Z,8.50
2024-02-09T16:55:44.510Z,10.07
2024-02-09T16:58:11.343Z,8.73
2024-02-09T17:00:38.205Z,8.90
2024-02-09T17:03:05.028Z,6.07
2024-02-09T17:05:32.984Z,8.70
2024-02-09T17:08:00.479Z,6.03
2024-02-09T17:10:27.251Z,6.50
2024-02-09T17:12:55.271Z,7.20
2024-02-09T17:15:22.843Z,6.83
2024-02-09T17:17:49.635Z,6.13
2024-02-09T17:20:16.784Z,6.27
2024-02-09T17:22:43.982Z,5.70
2024-02-09T17:25:13.160Z,6.50
2024-02-09T17:27:41.938Z,8.03
2024-02-09T17:30:09.465Z,6.30
2024-02-09T17:32:36.235Z,6.33
2024-02-09T17:35:03.724Z,7.97
2024-02-09T17:37:30.991Z,10.70
2024-02-09T17:39:57.797Z,5.93
2024-02-09T17:42:24.590Z,9.03
2024-02-09T17:44:54.145Z,7.47
2024-02-09T17:47:21.000Z,9.80
2024-02-09T17:49:48.328Z,8.23
2024-02-09T17:52:15.235Z,9.73
2024-02-09T17:54:41.997Z,9.23
2024-02-09T17:57:08.788Z,9.27
2024-02-09T17:59:36.121Z,9.47
2024-02-09T18:02:03.181Z,8.90
2024-02-09T18:04:30.419Z,10.87
2024-02-09T18:06:57.974Z,6.63
2024-02-09T18:09:24.770Z,8.40
2024-02-09T18:11:51.550Z,10.80
2024-02-09T18:14:18.259Z,6.40
2024-02-09T18:16:45.062Z,7.77
2024-02-09T18:19:12.417Z,11.13
2024-02-09T18:21:39.287Z,9.33
2024-02-09T18:24:06.809Z,12.70
2024-02-09T18:26:33.487Z,10.63
2024-02-09T18:29:00.378Z,7.70
2024-02-09T18:31:27.335Z,7.73
2024-02-09T18:33:54.343Z,9.77
2024-02-09T18:36:21.246Z,8.20
2024-02-09T18:38:49.925Z,7.70
2024-02-09T18:41:17.831Z,7.53
2024-02-09T18:43:49.824Z,7.00
2024-02-09T19:25:48.217Z,16.53
2024-02-09T19:28:19.046Z,14.37
2024-02-09T19:30:46.901Z,12.70
2024-02-09T19:33:15.202Z,25.63
2024-02-09T19:35:43.186Z,22.83
2024-02-09T19:38:10.294Z,27.33
2024-02-09T19:40:39.384Z,17.33
2024-02-09T19:43:06.343Z,17.87
2024-02-09T19:45:33.398Z,20.57
2024-02-09T19:48:03.606Z,14.17
2024-02-09T19:50:30.682Z,17.93
2024-02-09T19:52:58.192Z,15.47
2024-02-09T19:55:26.639Z,16.63
2024-02-09T19:57:54.479Z,31.83
2024-02-09T20:00:21.635Z,15.53
2024-02-09T20:02:53.531Z,23.53
2024-02-09T20:05:28.781Z,12.83
2024-02-09T20:07:55.827Z,23.13
2024-02-09T20:10:23.127Z,14.57
2024-02-09T20:12:51.475Z,15.43
2024-02-09T20:15:21.228Z,19.93
2024-02-09T20:17:49.828Z,24.33
2024-02-09T20:20:19.880Z,21.03
2024-02-09T20:22:52.640Z,21.07
2024-02-09T20:25:21.500Z,20.13
2024-02-09T20:27:51.497Z,24.47
2024-02-09T20:30:19.124Z,19.77
2024-02-09T20:32:47.944Z,17.50
2024-02-09T20:35:16.835Z,21.33
2024-02-09T20:37:47.414Z,18.07
2024-02-09T20:40:16.365Z,24.57
2024-02-09T20:42:45.329Z,22.67
2024-02-09T20:45:14.551Z,22.20
2024-02-09T20:47:48.829Z,22.97
2024-02-09T20:50:18.218Z,23.00
2024-02-09T20:52:48.440Z,24.33
2024-02-09T20:55:21.388Z,18.80
2024-02-09T20:57:51.254Z,24.23
2024-02-09T21:00:22.841Z,21.67
2024-02-09T21:02:52.809Z,24.63
2024-02-09T21:05:21.386Z,26.87
2024-02-09T21:07:50.350Z,29.07
2024-02-09T21:10:18.673Z,26.17
2024-02-09T21:12:47.764Z,34.73
2024-02-09T21:15:17.617Z,22.17
2024-02-09T21:17:47.046Z,20.47
2024-02-09T21:20:16.254Z,24.53
2024-02-09T21:22:44.339Z,24.23
2024-02-09T21:25:20.813Z,20.97
2024-02-09T21:27:49.821Z,20.80
2024-02-09T21:30:25.666Z,23.30
2024-02-09T21:32:58.141Z,26.43
2024-02-09T21:35:32.649Z,29.03
2024-02-09T21:38:01.474Z,22.20
2024-02-09T21:40:32.293Z,23.27
2024-02-09T21:43:01.430Z,26.07
2024-02-09T21:45:28.681Z,27.97
2024-02-09T21:47:58.315Z,34.27
2024-02-09T21:50:25.743Z,27.90
2024-02-09T21:52:53.187Z,31.37
2024-02-09T21:55:21.288Z,28.77
2024-02-09T21:57:49.835Z,29.17
2024-02-09T22:00:20.878Z,26.47
2024-02-09T22:02:48.801Z,29.57
2024-02-09T22:05:19.231Z,27.43
2024-02-09T22:07:48.305Z,32.20
2024-02-09T22:10:16.015Z,31.13
2024-02-09T22:12:50.507Z,28.83
2024-02-09T22:15:18.894Z,25.47
2024-02-09T22:17:46.426Z,25.57
2024-02-09T22:20:15.086Z,22.27
2024-02-09T22:22:45.527Z,23.73
2024-02-09T22:25:16.282Z,24.07
2024-02-09T22:27:44.412Z,22.67
2024-02-09T22:30:11.998Z,24.67
2024-02-09T22:32:40.571Z,21.93
2024-02-09T22:35:13.099Z,22.50
2024-02-09T22:37:43.396Z,28.80
2024-02-09T22:40:16.807Z,27.13
2024-02-09T22:42:45.869Z,27.40
2024-02-09T22:45:14.404Z,27.90
2024-02-09T22:47:44.141Z,34.50
2024-02-09T22:50:15.079Z,39.90
2024-02-09T22:52:46.152Z,26.30
2024-02-09T22:55:17.739Z,28.17
2024-02-09T22:57:47.745Z,26.77
2024-02-09T23:00:24.563Z,30.17
2024-02-09T23:02:53.862Z,23.60
2024-02-09T23:05:24.338Z,26.10
2024-02-09T23:07:54.267Z,27.30
2024-02-09T23:10:22.226Z,21.97
2024-02-09T23:12:49.791Z,28.87
2024-02-09T23:15:21.850Z,30.43
2024-02-09T23:17:52.365Z,20.43
2024-02-09T23:20:22.412Z,26.33
2024-02-09T23:22:52.917Z,24.60
2024-02-09T23:25:24.040Z,24.93
2024-02-09T23:27:58.013Z,26.60
2024-02-09T23:30:30.783Z,22.03
2024-02-09T23:33:07.354Z,21.87
2024-02-09T23:35:59.441Z,25.33
2024-02-09T23:38:48.374Z,24.87
